Terminal Aerodrome Forecast
Issued by NWS

Home | Current Version | Previous Version | Text Only | Print | Product List | Glossary On
Versions: 1 2 3 4 5 6 7 8 9 10 11 12 13 14 15
000
FTUS43 KMQT 030127 AAA
TAFSAW
TAF AMD
KSAW 030127Z 0301/0324 33004KT P6SM OVC025
      TEMPO 0301/0305 SCT025 OVC040
     FM030500 33004KT P6SM OVC015
     FM031900 34003KT P6SM OVC028=

USA.gov is the U.S. government's official web portal to all federal, state and local government web resources and services.